sensor_id;sensor_type;location;lat;lon;timestamp;pressure;altitude;pressure_sealevel;temperature;humidity
46756;BME280;32506;52.826;-1.192;2022-09-02T00:01:29;101220.16;;;19.90;38.86
46756;BME280;32506;52.826;-1.192;2022-09-02T00:03:58;101210.91;;;19.86;39.23
46756;BME280;32506;52.826;-1.192;2022-09-02T00:06:24;101215.78;;;19.84;39.28
46756;BME280;32506;52.826;-1.192;2022-09-02T00:08:50;101204.59;;;19.80;39.38
46756;BME280;32506;52.826;-1.192;2022-09-02T00:11:20;101204.00;;;19.78;39.56
46756;BME280;32506;52.826;-1.192;2022-09-02T00:13:47;101199.38;;;19.73;39.74
46756;BME280;32506;52.826;-1.192;2022-09-02T00:16:13;101205.06;;;19.72;39.92
46756;BME280;32506;52.826;-1.192;2022-09-02T00:18:39;101209.13;;;19.69;39.92
46756;BME280;32506;52.826;-1.192;2022-09-02T00:21:06;101197.97;;;19.66;40.11
46756;BME280;32506;52.826;-1.192;2022-09-02T00:23:32;101192.81;;;19.64;40.08
46756;BME280;32506;52.826;-1.192;2022-09-02T00:25:58;101191.41;;;19.61;40.27
46756;BME280;32506;52.826;-1.192;2022-09-02T00:28:24;101196.31;;;19.59;40.57
46756;BME280;32506;52.826;-1.192;2022-09-02T00:30:49;101194.91;;;19.57;40.31
46756;BME280;32506;52.826;-1.192;2022-09-02T00:33:16;101194.34;;;19.55;40.71
46756;BME280;32506;52.826;-1.192;2022-09-02T00:35:42;101186.75;;;19.52;40.37
46756;BME280;32506;52.826;-1.192;2022-09-02T00:38:08;101183.47;;;19.50;40.56
46756;BME280;32506;52.826;-1.192;2022-09-02T00:40:34;101186.44;;;19.48;40.41
46756;BME280;32506;52.826;-1.192;2022-09-02T00:43:00;101181.53;;;19.45;40.43
46756;BME280;32506;52.826;-1.192;2022-09-02T00:45:26;101174.72;;;19.42;40.33
46756;BME280;32506;52.826;-1.192;2022-09-02T00:47:51;101174.16;;;19.40;40.55
46756;BME280;32506;52.826;-1.192;2022-09-02T00:50:20;101170.91;;;19.38;40.50
46756;BME280;32506;52.826;-1.192;2022-09-02T00:52:52;101173.03;;;19.36;40.52
46756;BME280;32506;52.826;-1.192;2022-09-02T00:55:40;101176.59;;;19.37;40.46
46756;BME280;32506;52.826;-1.192;2022-09-02T00:58:20;101169.22;;;19.32;40.80
46756;BME280;32506;52.826;-1.192;2022-09-02T01:00:47;101165.97;;;19.30;40.56
46756;BME280;32506;52.826;-1.192;2022-09-02T01:03:19;101163.75;;;19.27;40.63
46756;BME280;32506;52.826;-1.192;2022-09-02T01:05:47;101155.88;;;19.25;40.84
46756;BME280;32506;52.826;-1.192;2022-09-02T01:08:16;101158.03;;;19.23;40.85
46756;BME280;32506;52.826;-1.192;2022-09-02T01:10:44;101154.50;;;19.23;40.91
46756;BME280;32506;52.826;-1.192;2022-09-02T01:13:13;101146.63;;;19.21;41.02
46756;BME280;32506;52.826;-1.192;2022-09-02T01:15:44;101147.94;;;19.19;41.16
46756;BME280;32506;52.826;-1.192;2022-09-02T01:18:14;101133.88;;;19.17;41.13
46756;BME280;32506;52.826;-1.192;2022-09-02T01:20:41;101136.84;;;19.15;41.23
46756;BME280;32506;52.826;-1.192;2022-09-02T01:23:07;101136.00;;;19.15;41.09
46756;BME280;32506;52.826;-1.192;2022-09-02T01:25:33;101132.75;;;19.13;41.08
46756;BME280;32506;52.826;-1.192;2022-09-02T01:28:03;101130.28;;;19.11;41.01
46756;BME280;32506;52.826;-1.192;2022-09-02T01:30:29;101130.53;;;19.09;40.96
46756;BME280;32506;52.826;-1.192;2022-09-02T01:32:55;101126.47;;;19.07;40.95
46756;BME280;32506;52.826;-1.192;2022-09-02T01:35:21;101126.69;;;19.05;41.02
46756;BME280;32506;52.826;-1.192;2022-09-02T01:37:47;101122.59;;;19.03;40.97
46756;BME280;32506;52.826;-1.192;2022-09-02T01:40:16;101122.88;;;19.01;40.93
46756;BME280;32506;52.826;-1.192;2022-09-02T01:42:43;101120.41;;;19.00;40.87
46756;BME280;32506;52.826;-1.192;2022-09-02T01:45:09;101126.09;;;18.98;41.25
46756;BME280;32506;52.826;-1.192;2022-09-02T01:47:35;101120.94;;;18.97;41.17
46756;BME280;32506;52.826;-1.192;2022-09-02T01:50:03;101127.44;;;18.95;41.00
46756;BME280;32506;52.826;-1.192;2022-09-02T01:52:29;101115.22;;;18.93;41.09
46756;BME280;32506;52.826;-1.192;2022-09-02T01:54:55;101116.28;;;18.92;41.49
46756;BME280;32506;52.826;-1.192;2022-09-02T01:57:21;101115.72;;;18.90;41.26
46756;BME280;32506;52.826;-1.192;2022-09-02T01:59:49;101116.78;;;18.89;41.16
46756;BME280;32506;52.826;-1.192;2022-09-02T02:02:16;101112.69;;;18.86;41.10
46756;BME280;32506;52.826;-1.192;2022-09-02T02:04:43;101111.88;;;18.86;41.08
46756;BME280;32506;52.826;-1.192;2022-09-02T02:07:11;101110.22;;;18.85;40.99
46756;BME280;32506;52.826;-1.192;2022-09-02T02:09:38;101104.25;;;18.83;41.12
46756;BME280;32506;52.826;-1.192;2022-09-02T02:12:04;101102.88;;;18.80;41.07
46756;BME280;32506;52.826;-1.192;2022-09-02T02:14:30;101096.63;;;18.79;41.35
46756;BME280;32506;52.826;-1.192;2022-09-02T02:16:56;101091.47;;;18.78;41.44
46756;BME280;32506;52.826;-1.192;2022-09-02T02:19:22;101084.69;;;18.75;41.49
46756;BME280;32506;52.826;-1.192;2022-09-02T02:21:47;101090.34;;;18.74;41.53
46756;BME280;32506;52.826;-1.192;2022-09-02T02:24:13;101078.94;;;18.72;41.74
46756;BME280;32506;52.826;-1.192;2022-09-02T02:26:39;101074.63;;;18.71;41.55
46756;BME280;32506;52.826;-1.192;2022-09-02T02:29:05;101079.47;;;18.69;41.82
46756;BME280;32506;52.826;-1.192;2022-09-02T02:31:30;101073.25;;;18.68;41.83
46756;BME280;32506;52.826;-1.192;2022-09-02T02:33:56;101074.31;;;18.67;41.68
46756;BME280;32506;52.826;-1.192;2022-09-02T02:36:22;101071.03;;;18.65;41.72
46756;BME280;32506;52.826;-1.192;2022-09-02T02:38:47;101069.41;;;18.64;41.82
46756;BME280;32506;52.826;-1.192;2022-09-02T02:41:13;101071.56;;;18.62;41.94
46756;BME280;32506;52.826;-1.192;2022-09-02T02:43:39;101061.78;;;18.61;42.12
46756;BME280;32506;52.826;-1.192;2022-09-02T02:46:06;101068.28;;;18.60;42.06
46756;BME280;32506;52.826;-1.192;2022-09-02T02:48:33;101067.72;;;18.58;42.29
46756;BME280;32506;52.826;-1.192;2022-09-02T02:50:59;101062.56;;;18.56;42.20
46756;BME280;32506;52.826;-1.192;2022-09-02T02:53:25;101059.06;;;18.56;42.28
46756;BME280;32506;52.826;-1.192;2022-09-02T03:01:24;101037.09;;;18.52;42.43
46756;BME280;32506;52.826;-1.192;2022-09-02T03:06:18;101043.00;;;18.49;42.52
46756;BME280;32506;52.826;-1.192;2022-09-02T03:08:44;101035.13;;;18.48;42.62
46756;BME280;32506;52.826;-1.192;2022-09-02T03:11:10;101031.88;;;18.45;42.51
46756;BME280;32506;52.826;-1.192;2022-09-02T03:13:36;101033.75;;;18.45;42.64
46756;BME280;32506;52.826;-1.192;2022-09-02T03:16:04;101031.28;;;18.43;42.66
46756;BME280;32506;52.826;-1.192;2022-09-02T03:18:31;101026.13;;;18.42;42.29
46756;BME280;32506;52.826;-1.192;2022-09-02T03:20:57;101021.00;;;18.40;42.52
46756;BME280;32506;52.826;-1.192;2022-09-02T03:23:25;101019.34;;;18.39;42.54
46756;BME280;32506;52.826;-1.192;2022-09-02T03:25:52;101017.97;;;18.37;42.50
46756;BME280;32506;52.826;-1.192;2022-09-02T03:28:32;101015.00;;;18.38;42.81
46756;BME280;32506;52.826;-1.192;2022-09-02T03:30:57;101016.34;;;18.36;42.68
46756;BME280;32506;52.826;-1.192;2022-09-02T03:33:23;101015.50;;;18.35;42.78
46756;BME280;32506;52.826;-1.192;2022-09-02T03:35:48;101013.06;;;18.34;42.63
46756;BME280;32506;52.826;-1.192;2022-09-02T03:38:14;101014.72;;;18.35;42.88
46756;BME280;32506;52.826;-1.192;2022-09-02T03:40:39;101016.03;;;18.32;42.99
46756;BME280;32506;52.826;-1.192;2022-09-02T03:43:06;101012.50;;;18.32;43.15
46756;BME280;32506;52.826;-1.192;2022-09-02T03:45:31;101007.34;;;18.30;43.12
46756;BME280;32506;52.826;-1.192;2022-09-02T03:47:57;101006.53;;;18.30;43.13
46756;BME280;32506;52.826;-1.192;2022-09-02T03:50:26;101002.19;;;18.28;43.11
46756;BME280;32506;52.826;-1.192;2022-09-02T03:52:52;101004.09;;;18.28;43.14
46756;BME280;32506;52.826;-1.192;2022-09-02T03:55:19;100997.03;;;18.27;43.58
46756;BME280;32506;52.826;-1.192;2022-09-02T03:57:45;100993.53;;;18.26;43.36
46756;BME280;32506;52.826;-1.192;2022-09-02T04:00:13;100991.03;;;18.25;43.82
46756;BME280;32506;52.826;-1.192;2022-09-02T04:02:39;100985.63;;;18.25;44.08
46756;BME280;32506;52.826;-1.192;2022-09-02T04:05:06;100991.31;;;18.23;44.11
46756;BME280;32506;52.826;-1.192;2022-09-02T04:07:31;100987.78;;;18.23;44.08
46756;BME280;32506;52.826;-1.192;2022-09-02T04:09:57;100986.16;;;18.22;44.12
46756;BME280;32506;52.826;-1.192;2022-09-02T04:12:23;100983.19;;;18.23;44.08
46756;BME280;32506;52.826;-1.192;2022-09-02T04:14:48;100982.66;;;18.21;44.26
46756;BME280;32506;52.826;-1.192;2022-09-02T04:17:14;100984.50;;;18.21;44.54
46756;BME280;32506;52.826;-1.192;2022-09-02T04:19:39;100974.78;;;18.20;44.56
46756;BME280;32506;52.826;-1.192;2022-09-02T04:22:06;100975.84;;;18.19;44.52
46756;BME280;32506;52.826;-1.192;2022-09-02T04:24:32;100979.38;;;18.19;44.41
46756;BME280;32506;52.826;-1.192;2022-09-02T04:26:57;100973.16;;;18.19;44.46
46756;BME280;32506;52.826;-1.192;2022-09-02T04:29:23;100975.84;;;18.19;44.50
46756;BME280;32506;52.826;-1.192;2022-09-02T04:31:48;100973.41;;;18.17;44.38
46756;BME280;32506;52.826;-1.192;2022-09-02T04:34:14;100979.88;;;18.16;44.25
46756;BME280;32506;52.826;-1.192;2022-09-02T04:36:39;100982.59;;;18.16;44.14
46756;BME280;32506;52.826;-1.192;2022-09-02T04:39:05;100982.84;;;18.15;44.09
46756;BME280;32506;52.826;-1.192;2022-09-02T04:41:34;100981.19;;;18.14;44.11
46756;BME280;32506;52.826;-1.192;2022-09-02T04:44:00;100975.78;;;18.14;44.11
46756;BME280;32506;52.826;-1.192;2022-09-02T04:46:25;100981.47;;;18.12;44.01
46756;BME280;32506;52.826;-1.192;2022-09-02T04:48:51;100983.09;;;18.13;44.20
46756;BME280;32506;52.826;-1.192;2022-09-02T04:51:19;100983.34;;;18.11;44.02
46756;BME280;32506;52.826;-1.192;2022-09-02T04:53:47;100985.47;;;18.09;44.15
46756;BME280;32506;52.826;-1.192;2022-09-02T04:56:15;100978.19;;;18.10;44.22
46756;BME280;32506;52.826;-1.192;2022-09-02T04:58:42;100985.47;;;18.09;44.47
46756;BME280;32506;52.826;-1.192;2022-09-02T05:01:16;100988.19;;;18.09;44.49
46756;BME280;32506;52.826;-1.192;2022-09-02T05:03:43;100987.63;;;18.07;44.44
46756;BME280;32506;52.826;-1.192;2022-09-02T05:06:12;100987.63;;;18.07;44.33
46756;BME280;32506;52.826;-1.192;2022-09-02T05:08:38;100984.09;;;18.07;44.74
46756;BME280;32506;52.826;-1.192;2022-09-02T05:11:11;100986.81;;;18.07;44.67
46756;BME280;32506;52.826;-1.192;2022-09-02T05:13:37;100980.88;;;18.10;44.55
46756;BME280;32506;52.826;-1.192;2022-09-02T05:16:03;100983.56;;;18.05;44.83
46756;BME280;32506;52.826;-1.192;2022-09-02T05:18:28;100983.56;;;18.05;44.98
46756;BME280;32506;52.826;-1.192;2022-09-02T05:20:54;100977.56;;;18.03;44.91
46756;BME280;32506;52.826;-1.192;2022-09-02T05:23:20;100981.06;;;18.03;44.98
46756;BME280;32506;52.826;-1.192;2022-09-02T05:25:46;100985.69;;;18.03;44.93
46756;BME280;32506;52.826;-1.192;2022-09-02T05:28:11;100979.47;;;18.02;44.86
46756;BME280;32506;52.826;-1.192;2022-09-02T05:30:39;100977.56;;;18.03;44.91
46756;BME280;32506;52.826;-1.192;2022-09-02T05:33:06;100976.75;;;18.02;45.07
46756;BME280;32506;52.826;-1.192;2022-09-02T05:35:31;100971.34;;;18.02;45.22
46756;BME280;32506;52.826;-1.192;2022-09-02T05:37:57;100973.22;;;18.02;45.42
46756;BME280;32506;52.826;-1.192;2022-09-02T05:40:23;100975.94;;;18.02;45.19
46756;BME280;32506;52.826;-1.192;2022-09-02T05:42:49;100982.16;;;18.02;45.26
46756;BME280;32506;52.826;-1.192;2022-09-02T05:45:15;100978.63;;;18.02;45.26
46756;BME280;32506;52.826;-1.192;2022-09-02T05:47:40;100977.81;;;18.01;45.43
46756;BME280;32506;52.826;-1.192;2022-09-02T05:50:06;100983.22;;;18.01;45.61
46756;BME280;32506;52.826;-1.192;2022-09-02T05:52:32;100983.22;;;18.01;45.48
46756;BME280;32506;52.826;-1.192;2022-09-02T05:54:58;100978.88;;;18.00;44.97
46756;BME280;32506;52.826;-1.192;2022-09-02T05:57:25;100976.19;;;18.00;45.05
46756;BME280;32506;52.826;-1.192;2022-09-02T05:59:51;100981.59;;;18.00;45.08
46756;BME280;32506;52.826;-1.192;2022-09-02T06:02:22;100990.50;;;18.01;45.22
46756;BME280;32506;52.826;-1.192;2022-09-02T06:04:50;100981.59;;;18.00;45.19
46756;BME280;32506;52.826;-1.192;2022-09-02T06:07:19;100979.16;;;17.99;45.11
46756;BME280;32506;52.826;-1.192;2022-09-02T06:09:45;100969.97;;;18.00;45.10
46756;BME280;32506;52.826;-1.192;2022-09-02T06:12:12;100974.53;;;17.99;45.30
46756;BME280;32506;52.826;-1.192;2022-09-02T06:14:38;100968.88;;;18.01;45.08
46756;BME280;32506;52.826;-1.192;2022-09-02T06:17:04;100961.84;;;18.00;45.59
46756;BME280;32506;52.826;-1.192;2022-09-02T06:19:30;100966.44;;;17.99;45.28
46756;BME280;32506;52.826;-1.192;2022-09-02T06:21:58;100968.34;;;17.99;45.63
46756;BME280;32506;52.826;-1.192;2022-09-02T06:24:24;100965.63;;;17.99;45.24
46756;BME280;32506;52.826;-1.192;2022-09-02T06:26:50;100966.44;;;17.99;45.21
46756;BME280;32506;52.826;-1.192;2022-09-02T06:29:17;100959.16;;;18.00;45.18
46756;BME280;32506;52.826;-1.192;2022-09-02T06:31:45;100961.03;;;17.99;45.33
46756;BME280;32506;52.826;-1.192;2022-09-02T06:34:12;100955.34;;;18.01;45.31
46756;BME280;32506;52.826;-1.192;2022-09-02T06:36:40;100955.34;;;18.01;45.51
46756;BME280;32506;52.826;-1.192;2022-09-02T06:39:06;100948.09;;;18.01;45.45
46756;BME280;32506;52.826;-1.192;2022-09-02T06:41:33;100948.09;;;18.01;45.46
46756;BME280;32506;52.826;-1.192;2022-09-02T06:44:02;100951.59;;;18.02;45.71
46756;BME280;32506;52.826;-1.192;2022-09-02T06:46:33;100944.53;;;18.01;45.50
46756;BME280;32506;52.826;-1.192;2022-09-02T06:48:59;100939.97;;;18.01;45.58
46756;BME280;32506;52.826;-1.192;2022-09-02T06:51:30;100947.00;;;18.02;45.63
46756;BME280;32506;52.826;-1.192;2022-09-02T06:53:56;100947.81;;;18.03;45.27
46756;BME280;32506;52.826;-1.192;2022-09-02T06:56:22;100949.47;;;18.04;45.36
46756;BME280;32506;52.826;-1.192;2022-09-02T06:58:48;100940.50;;;18.03;45.51
46756;BME280;32506;52.826;-1.192;2022-09-02T07:01:25;100939.19;;;18.06;45.69
46756;BME280;32506;52.826;-1.192;2022-09-02T07:03:51;100941.91;;;18.06;44.94
46756;BME280;32506;52.826;-1.192;2022-09-02T07:06:40;100946.50;;;18.05;45.14
46756;BME280;32506;52.826;-1.192;2022-09-02T07:09:09;100942.72;;;18.06;45.02
46756;BME280;32506;52.826;-1.192;2022-09-02T07:11:36;100943.28;;;18.08;45.04
46756;BME280;32506;52.826;-1.192;2022-09-02T07:14:02;100945.72;;;18.10;45.38
46756;BME280;32506;52.826;-1.192;2022-09-02T07:16:31;100944.66;;;18.11;45.64
46756;BME280;32506;52.826;-1.192;2022-09-02T07:18:57;100950.91;;;18.11;45.95
46756;BME280;32506;52.826;-1.192;2022-09-02T07:21:26;100940.09;;;18.11;46.03
46756;BME280;32506;52.826;-1.192;2022-09-02T07:23:53;100943.34;;;18.14;45.77
46756;BME280;32506;52.826;-1.192;2022-09-02T07:26:19;100944.72;;;18.16;46.42
46756;BME280;32506;52.826;-1.192;2022-09-02T07:28:44;100939.31;;;18.16;46.15
46756;BME280;32506;52.826;-1.192;2022-09-02T07:31:13;100936.34;;;18.18;46.37
46756;BME280;32506;52.826;-1.192;2022-09-02T07:33:39;100933.94;;;18.21;46.58
46756;BME280;32506;52.826;-1.192;2022-09-02T07:36:06;100932.88;;;18.22;46.49
46756;BME280;32506;52.826;-1.192;2022-09-02T07:38:32;100938.84;;;18.24;46.75
46756;BME280;32506;52.826;-1.192;2022-09-02T07:40:58;100924.25;;;18.25;46.81
46756;BME280;32506;52.826;-1.192;2022-09-02T07:43:25;100927.50;;;18.27;46.84
46756;BME280;32506;52.826;-1.192;2022-09-02T07:45:52;100918.06;;;18.30;46.76
46756;BME280;32506;52.826;-1.192;2022-09-02T07:48:20;100920.50;;;18.32;47.01
46756;BME280;32506;52.826;-1.192;2022-09-02T07:50:45;100918.38;;;18.34;47.23
46756;BME280;32506;52.826;-1.192;2022-09-02T07:53:11;100918.94;;;18.36;47.46
46756;BME280;32506;52.826;-1.192;2022-09-02T07:55:38;100916.53;;;18.39;47.80
46756;BME280;32506;52.826;-1.192;2022-09-02T07:58:06;100925.22;;;18.41;47.63
46756;BME280;32506;52.826;-1.192;2022-09-02T08:00:32;100923.06;;;18.43;47.99
46756;BME280;32506;52.826;-1.192;2022-09-02T08:02:58;100926.06;;;18.47;48.05
46756;BME280;32506;52.826;-1.192;2022-09-02T08:05:24;100917.44;;;18.50;47.95
46756;BME280;32506;52.826;-1.192;2022-09-02T08:07:50;100922.34;;;18.53;48.15
46756;BME280;32506;52.826;-1.192;2022-09-02T08:10:15;100921.81;;;18.56;48.08
46756;BME280;32506;52.826;-1.192;2022-09-02T08:12:42;100921.28;;;18.59;48.38
46756;BME280;32506;52.826;-1.192;2022-09-02T08:15:10;100922.66;;;18.62;48.15
46756;BME280;32506;52.826;-1.192;2022-09-02T08:17:36;100922.16;;;18.65;48.17
46756;BME280;32506;52.826;-1.192;2022-09-02T08:20:06;100928.13;;;18.67;48.08
46756;BME280;32506;52.826;-1.192;2022-09-02T08:22:33;100928.44;;;18.71;48.09
46756;BME280;32506;52.826;-1.192;2022-09-02T08:25:00;100922.50;;;18.74;48.20
46756;BME280;32506;52.826;-1.192;2022-09-02T08:27:25;100924.69;;;18.77;48.17
46756;BME280;32506;52.826;-1.192;2022-09-02T08:29:52;100929.59;;;18.80;48.03
46756;BME280;32506;52.826;-1.192;2022-09-02T08:32:17;100928.22;;;18.83;47.93
46756;BME280;32506;52.826;-1.192;2022-09-02T08:34:43;100920.69;;;18.85;47.68
46756;BME280;32506;52.826;-1.192;2022-09-02T08:37:08;100920.16;;;18.88;47.73
46756;BME280;32506;52.826;-1.192;2022-09-02T08:39:33;100925.09;;;18.91;47.81
46756;BME280;32506;52.826;-1.192;2022-09-02T08:42:22;100918.88;;;18.95;47.68
46756;BME280;32506;52.826;-1.192;2022-09-02T08:44:51;100922.41;;;18.96;47.64
46756;BME280;32506;52.826;-1.192;2022-09-02T08:47:24;100925.69;;;18.98;47.79
46756;BME280;32506;52.826;-1.192;2022-09-02T08:49:57;100924.34;;;19.01;47.75
46756;BME280;32506;52.826;-1.192;2022-09-02T08:52:55;100922.47;;;19.06;47.71
46756;BME280;32506;52.826;-1.192;2022-09-02T08:55:23;100912.22;;;19.08;47.56
46756;BME280;32506;52.826;-1.192;2022-09-02T08:57:50;100918.16;;;19.10;47.72
46756;BME280;32506;52.826;-1.192;2022-09-02T09:00:16;100908.44;;;19.15;47.59
46756;BME280;32506;52.826;-1.192;2022-09-02T09:18:42;100895.28;;;19.39;47.79
46756;BME280;32506;52.826;-1.192;2022-09-02T09:21:12;100890.16;;;19.42;47.82
46756;BME280;32506;52.826;-1.192;2022-09-02T09:23:39;100891.53;;;19.45;47.84
46756;BME280;32506;52.826;-1.192;2022-09-02T09:26:13;100884.50;;;19.49;47.85
46756;BME280;32506;52.826;-1.192;2022-09-02T09:28:47;100886.66;;;19.52;47.79
46756;BME280;32506;52.826;-1.192;2022-09-02T09:31:19;100885.03;;;19.56;47.71
46756;BME280;32506;52.826;-1.192;2022-09-02T09:33:56;100890.75;;;19.60;47.79
46756;BME280;32506;52.826;-1.192;2022-09-02T09:36:49;100883.44;;;19.66;47.97
46756;BME280;32506;52.826;-1.192;2022-09-02T09:39:17;100876.97;;;19.67;48.00
46756;BME280;32506;52.826;-1.192;2022-09-02T09:41:45;100882.66;;;19.70;47.79
46756;BME280;32506;52.826;-1.192;2022-09-02T09:44:32;100878.88;;;19.76;47.96
46756;BME280;32506;52.826;-1.192;2022-09-02T09:47:06;100875.88;;;19.78;48.02
46756;BME280;32506;52.826;-1.192;2022-09-02T09:49:33;100876.78;;;19.84;48.14
46756;BME280;32506;52.826;-1.192;2022-09-02T09:51:59;100870.53;;;19.88;48.22
46756;BME280;32506;52.826;-1.192;2022-09-02T09:54:26;100868.09;;;19.92;48.15
46756;BME280;32506;52.826;-1.192;2022-09-02T09:56:53;100869.72;;;19.98;48.31
46756;BME280;32506;52.826;-1.192;2022-09-02T09:59:48;100865.69;;;20.06;48.21
46756;BME280;32506;52.826;-1.192;2022-09-02T10:02:25;100871.38;;;20.09;48.44
46756;BME280;32506;52.826;-1.192;2022-09-02T10:05:38;100865.13;;;20.14;48.54
46756;BME280;32506;52.826;-1.192;2022-09-02T10:07:40;100856.72;;;20.21;48.42
46756;BME280;32506;52.826;-1.192;2022-09-02T10:10:20;100862.72;;;20.28;48.76
46756;BME280;32506;52.826;-1.192;2022-09-02T10:12:48;100859.19;;;20.33;49.17
46756;BME280;32506;52.826;-1.192;2022-09-02T10:15:17;100852.97;;;20.37;49.07
46756;BME280;32506;52.826;-1.192;2022-09-02T10:17:54;100857.56;;;20.47;49.09
46756;BME280;32506;52.826;-1.192;2022-09-02T10:23:13;100846.13;;;20.60;49.02
46756;BME280;32506;52.826;-1.192;2022-09-02T10:31:45;100833.34;;;20.87;49.53
46756;BME280;32506;52.826;-1.192;2022-09-02T10:42:17;100822.91;;;21.25;49.88
46756;BME280;32506;52.826;-1.192;2022-09-02T10:45:22;100826.09;;;21.37;50.18
46756;BME280;32506;52.826;-1.192;2022-09-02T10:48:04;100817.34;;;21.45;50.48
46756;BME280;32506;52.826;-1.192;2022-09-02T10:55:55;100808.22;;;21.76;50.46
46756;BME280;32506;52.826;-1.192;2022-09-02T10:58:48;100813.59;;;21.86;50.15
46756;BME280;32506;52.826;-1.192;2022-09-02T11:01:19;100809.44;;;21.94;49.99
46756;BME280;32506;52.826;-1.192;2022-09-02T11:06:44;100800.09;;;22.10;50.27
46756;BME280;32506;52.826;-1.192;2022-09-02T11:09:38;100796.16;;;22.22;49.88
46756;BME280;32506;52.826;-1.192;2022-09-02T11:12:33;100795.53;;;22.30;49.74
46756;BME280;32506;52.826;-1.192;2022-09-02T11:15:16;100797.97;;;22.37;49.42
46756;BME280;32506;52.826;-1.192;2022-09-02T11:26:52;100782.94;;;22.69;49.26
46756;BME280;32506;52.826;-1.192;2022-09-02T11:29:28;100783.09;;;22.77;49.36
46756;BME280;32506;52.826;-1.192;2022-09-02T11:32:06;100787.34;;;22.89;49.12
46756;BME280;32506;52.826;-1.192;2022-09-02T11:34:43;100786.69;;;22.97;49.38
46756;BME280;32506;52.826;-1.192;2022-09-02T11:37:26;100783.00;;;23.07;49.33
46756;BME280;32506;52.826;-1.192;2022-09-02T11:40:04;100779.41;;;23.17;49.23
46756;BME280;32506;52.826;-1.192;2022-09-02T11:42:43;100783.09;;;23.26;49.04
46756;BME280;32506;52.826;-1.192;2022-09-02T11:53:40;100759.41;;;23.59;48.81
46756;BME280;32506;52.826;-1.192;2022-09-02T11:56:21;100756.03;;;23.68;48.38
46756;BME280;32506;52.826;-1.192;2022-09-02T11:58:50;100755.94;;;23.73;48.57
46756;BME280;32506;52.826;-1.192;2022-09-02T12:01:36;100750.91;;;23.80;48.25
46756;BME280;32506;52.826;-1.192;2022-09-02T12:04:03;100759.03;;;23.85;48.03
46756;BME280;32506;52.826;-1.192;2022-09-02T12:06:29;100764.94;;;23.92;47.85
46756;BME280;32506;52.826;-1.192;2022-09-02T12:08:58;100760.50;;;23.96;47.76
46756;BME280;32506;52.826;-1.192;2022-09-02T12:11:37;100760.41;;;24.02;47.40
46756;BME280;32506;52.826;-1.192;2022-09-02T12:14:10;100748.59;;;24.06;47.26
46756;BME280;32506;52.826;-1.192;2022-09-02T12:16:44;100743.03;;;24.11;47.44
46756;BME280;32506;52.826;-1.192;2022-09-02T12:24:58;100728.59;;;24.25;46.79
46756;BME280;32506;52.826;-1.192;2022-09-02T12:27:34;100715.47;;;24.27;46.66
46756;BME280;32506;52.826;-1.192;2022-09-02T12:30:07;100709.41;;;24.30;46.40
46756;BME280;32506;52.826;-1.192;2022-09-02T12:37:57;100705.38;;;24.41;45.86
46756;BME280;32506;52.826;-1.192;2022-09-02T12:41:17;100706.38;;;24.45;45.48
46756;BME280;32506;52.826;-1.192;2022-09-02T12:44:17;100705.75;;;24.49;45.62
46756;BME280;32506;52.826;-1.192;2022-09-02T12:49:51;100691.69;;;24.55;45.09
46756;BME280;32506;52.826;-1.192;2022-09-02T12:55:17;100685.63;;;24.58;44.52
46756;BME280;32506;52.826;-1.192;2022-09-02T12:57:49;100685.31;;;24.60;44.46
46756;BME280;32506;52.826;-1.192;2022-09-02T13:00:25;100687.47;;;24.63;44.36
46756;BME280;32506;52.826;-1.192;2022-09-02T13:06:04;100680.28;;;24.67;43.81
46756;BME280;32506;52.826;-1.192;2022-09-02T13:08:47;100682.72;;;24.69;44.15
46756;BME280;32506;52.826;-1.192;2022-09-02T13:31:21;100668.41;;;24.86;44.09
46756;BME280;32506;52.826;-1.192;2022-09-02T13:34:05;100657.97;;;24.88;44.16
46756;BME280;32506;52.826;-1.192;2022-09-02T13:36:41;100654.91;;;24.89;44.27
46756;BME280;32506;52.826;-1.192;2022-09-02T13:39:22;100652.41;;;24.93;44.13
46756;BME280;32506;52.826;-1.192;2022-09-02T13:41:48;100646.31;;;24.96;44.18
46756;BME280;32506;52.826;-1.192;2022-09-02T13:44:24;100648.13;;;25.01;44.09
46756;BME280;32506;52.826;-1.192;2022-09-02T13:47:13;100644.44;;;25.05;44.03
46756;BME280;32506;52.826;-1.192;2022-09-02T13:49:46;100642.22;;;25.07;44.05
46756;BME280;32506;52.826;-1.192;2022-09-02T13:52:15;100631.47;;;25.11;43.83
46756;BME280;32506;52.826;-1.192;2022-09-02T13:54:47;100622.34;;;25.16;44.04
46756;BME280;32506;52.826;-1.192;2022-09-02T13:57:18;100628.81;;;25.20;43.92
46756;BME280;32506;52.826;-1.192;2022-09-02T13:59:48;100619.19;;;25.22;43.91
46756;BME280;32506;52.826;-1.192;2022-09-02T14:02:29;100623.38;;;25.28;43.93
46756;BME280;32506;52.826;-1.192;2022-09-02T14:04:58;100613.75;;;25.31;43.86
46756;BME280;32506;52.826;-1.192;2022-09-02T14:07:31;100614.78;;;25.35;44.10
46756;BME280;32506;52.826;-1.192;2022-09-02T14:10:00;100616.59;;;25.40;43.88
46756;BME280;32506;52.826;-1.192;2022-09-02T14:12:28;100607.75;;;25.43;43.89
46756;BME280;32506;52.826;-1.192;2022-09-02T14:14:56;100602.47;;;25.46;43.94
46756;BME280;32506;52.826;-1.192;2022-09-02T14:17:24;100600.72;;;25.51;43.78
46756;BME280;32506;52.826;-1.192;2022-09-02T14:19:50;100593.81;;;25.53;43.65
46756;BME280;32506;52.826;-1.192;2022-09-02T14:22:34;100594.81;;;25.57;43.78
46756;BME280;32506;52.826;-1.192;2022-09-02T14:25:14;100593.69;;;25.58;43.37
46756;BME280;32506;52.826;-1.192;2022-09-02T14:27:50;100593.38;;;25.60;42.97
46756;BME280;32506;52.826;-1.192;2022-09-02T14:30:52;100579.84;;;25.63;43.11
46756;BME280;32506;52.826;-1.192;2022-09-02T14:33:39;100581.00;;;25.62;42.78
46756;BME280;32506;52.826;-1.192;2022-09-02T14:44:07;100576.00;;;25.65;42.54
46756;BME280;32506;52.826;-1.192;2022-09-02T14:46:43;100577.94;;;25.64;42.23
46756;BME280;32506;52.826;-1.192;2022-09-02T14:49:20;100571.63;;;25.63;42.19